sensor_id;sensor_type;location;lat;lon;timestamp;temperature;humidity
15834;DHT22;8017;50.812;4.934;2023-04-24T00:00:27;9.60;99.90
15834;DHT22;8017;50.812;4.934;2023-04-24T00:03:29;9.60;99.90
15834;DHT22;8017;50.812;4.934;2023-04-24T00:06:31;9.60;99.90
15834;DHT22;8017;50.812;4.934;2023-04-24T00:09:34;9.60;99.90
15834;DHT22;8017;50.812;4.934;2023-04-24T00:12:36;9.60;99.90
15834;DHT22;8017;50.812;4.934;2023-04-24T00:15:39;9.60;99.90
15834;DHT22;8017;50.812;4.934;2023-04-24T00:18:41;9.70;99.90
15834;DHT22;8017;50.812;4.934;2023-04-24T00:21:43;9.70;99.90
15834;DHT22;8017;50.812;4.934;2023-04-24T00:24:45;9.70;99.90
15834;DHT22;8017;50.812;4.934;2023-04-24T00:27:47;9.70;99.90
15834;DHT22;8017;50.812;4.934;2023-04-24T00:30:50;9.70;99.90
15834;DHT22;8017;50.812;4.934;2023-04-24T00:33:52;9.70;99.90
15834;DHT22;8017;50.812;4.934;2023-04-24T00:36:54;9.70;99.90
15834;DHT22;8017;50.812;4.934;2023-04-24T00:39:56;9.60;99.90
15834;DHT22;8017;50.812;4.934;2023-04-24T00:42:58;9.60;99.90
15834;DHT22;8017;50.812;4.934;2023-04-24T00:46:01;9.60;99.90
15834;DHT22;8017;50.812;4.934;2023-04-24T00:49:04;9.60;99.90
15834;DHT22;8017;50.812;4.934;2023-04-24T00:52:06;9.60;99.90
15834;DHT22;8017;50.812;4.934;2023-04-24T00:55:09;9.70;99.90
15834;DHT22;8017;50.812;4.934;2023-04-24T00:58:11;9.60;99.90
15834;DHT22;8017;50.812;4.934;2023-04-24T01:01:15;9.70;99.90
15834;DHT22;8017;50.812;4.934;2023-04-24T01:04:17;9.70;99.90
15834;DHT22;8017;50.812;4.934;2023-04-24T01:07:20;9.70;99.90
15834;DHT22;8017;50.812;4.934;2023-04-24T01:10:23;9.70;99.90
15834;DHT22;8017;50.812;4.934;2023-04-24T01:13:26;9.70;99.90
15834;DHT22;8017;50.812;4.934;2023-04-24T01:16:30;9.70;99.90
15834;DHT22;8017;50.812;4.934;2023-04-24T01:19:32;9.70;99.90
15834;DHT22;8017;50.812;4.934;2023-04-24T01:22:35;9.70;99.90
15834;DHT22;8017;50.812;4.934;2023-04-24T01:25:37;9.60;99.90
15834;DHT22;8017;50.812;4.934;2023-04-24T01:28:39;9.60;99.90
15834;DHT22;8017;50.812;4.934;2023-04-24T01:31:41;9.60;99.90
15834;DHT22;8017;50.812;4.934;2023-04-24T01:34:44;9.50;99.90
15834;DHT22;8017;50.812;4.934;2023-04-24T01:37:48;9.50;99.90
15834;DHT22;8017;50.812;4.934;2023-04-24T01:40:50;9.50;99.90
15834;DHT22;8017;50.812;4.934;2023-04-24T01:43:53;9.50;99.90
15834;DHT22;8017;50.812;4.934;2023-04-24T01:46:55;9.40;99.90
15834;DHT22;8017;50.812;4.934;2023-04-24T01:49:57;9.40;99.90
15834;DHT22;8017;50.812;4.934;2023-04-24T01:53:00;9.40;99.90
15834;DHT22;8017;50.812;4.934;2023-04-24T01:56:02;9.30;99.90
15834;DHT22;8017;50.812;4.934;2023-04-24T01:59:04;9.30;99.90
15834;DHT22;8017;50.812;4.934;2023-04-24T02:02:07;9.30;99.90
15834;DHT22;8017;50.812;4.934;2023-04-24T02:05:09;9.20;99.90
15834;DHT22;8017;50.812;4.934;2023-04-24T02:08:12;9.10;99.90
15834;DHT22;8017;50.812;4.934;2023-04-24T02:11:14;9.10;99.90
15834;DHT22;8017;50.812;4.934;2023-04-24T02:14:16;9.00;99.90
15834;DHT22;8017;50.812;4.934;2023-04-24T02:17:18;9.00;99.90
15834;DHT22;8017;50.812;4.934;2023-04-24T02:20:20;8.90;99.90
15834;DHT22;8017;50.812;4.934;2023-04-24T02:23:23;8.90;99.90
15834;DHT22;8017;50.812;4.934;2023-04-24T02:26:25;9.00;99.90
15834;DHT22;8017;50.812;4.934;2023-04-24T02:29:27;9.00;99.90
15834;DHT22;8017;50.812;4.934;2023-04-24T02:32:30;8.90;99.90
15834;DHT22;8017;50.812;4.934;2023-04-24T02:35:32;8.90;99.90
15834;DHT22;8017;50.812;4.934;2023-04-24T02:38:35;8.90;99.90
15834;DHT22;8017;50.812;4.934;2023-04-24T02:41:37;8.80;99.90
15834;DHT22;8017;50.812;4.934;2023-04-24T02:44:39;8.70;99.90
15834;DHT22;8017;50.812;4.934;2023-04-24T02:47:41;8.70;99.90
15834;DHT22;8017;50.812;4.934;2023-04-24T02:50:43;8.70;99.90
15834;DHT22;8017;50.812;4.934;2023-04-24T02:53:46;8.70;99.90
15834;DHT22;8017;50.812;4.934;2023-04-24T02:56:48;8.70;99.90
15834;DHT22;8017;50.812;4.934;2023-04-24T02:59:50;8.70;99.90
15834;DHT22;8017;50.812;4.934;2023-04-24T03:02:52;8.70;99.90
15834;DHT22;8017;50.812;4.934;2023-04-24T03:05:54;8.80;99.90
15834;DHT22;8017;50.812;4.934;2023-04-24T03:08:58;8.80;99.90
15834;DHT22;8017;50.812;4.934;2023-04-24T03:12:00;8.70;99.90
15834;DHT22;8017;50.812;4.934;2023-04-24T03:15:03;8.80;99.90
15834;DHT22;8017;50.812;4.934;2023-04-24T03:18:05;8.80;99.90
15834;DHT22;8017;50.812;4.934;2023-04-24T03:21:07;8.70;99.90
15834;DHT22;8017;50.812;4.934;2023-04-24T03:24:10;8.70;99.90
15834;DHT22;8017;50.812;4.934;2023-04-24T03:27:12;8.80;99.90
15834;DHT22;8017;50.812;4.934;2023-04-24T03:30:14;8.70;99.90
15834;DHT22;8017;50.812;4.934;2023-04-24T03:33:16;8.80;99.90
15834;DHT22;8017;50.812;4.934;2023-04-24T03:36:18;8.80;99.90
15834;DHT22;8017;50.812;4.934;2023-04-24T03:39:21;8.70;99.90
15834;DHT22;8017;50.812;4.934;2023-04-24T03:42:23;8.60;99.90
15834;DHT22;8017;50.812;4.934;2023-04-24T03:45:25;8.60;99.90
15834;DHT22;8017;50.812;4.934;2023-04-24T03:48:27;8.60;99.90
15834;DHT22;8017;50.812;4.934;2023-04-24T03:51:28;8.60;99.90
15834;DHT22;8017;50.812;4.934;2023-04-24T03:54:33;8.60;99.90
15834;DHT22;8017;50.812;4.934;2023-04-24T03:57:35;8.60;99.90
15834;DHT22;8017;50.812;4.934;2023-04-24T04:00:37;8.50;99.90
15834;DHT22;8017;50.812;4.934;2023-04-24T04:03:40;8.60;99.90
15834;DHT22;8017;50.812;4.934;2023-04-24T04:06:43;8.50;99.90
15834;DHT22;8017;50.812;4.934;2023-04-24T04:09:46;8.60;99.90
15834;DHT22;8017;50.812;4.934;2023-04-24T04:12:48;8.60;99.90
15834;DHT22;8017;50.812;4.934;2023-04-24T04:15:50;8.50;99.90
15834;DHT22;8017;50.812;4.934;2023-04-24T04:18:52;8.50;99.90
15834;DHT22;8017;50.812;4.934;2023-04-24T04:21:54;8.50;99.90
15834;DHT22;8017;50.812;4.934;2023-04-24T04:24:58;8.50;99.90
15834;DHT22;8017;50.812;4.934;2023-04-24T04:28:00;8.50;99.90
15834;DHT22;8017;50.812;4.934;2023-04-24T04:31:02;8.40;99.90
15834;DHT22;8017;50.812;4.934;2023-04-24T04:34:04;8.50;99.90
15834;DHT22;8017;50.812;4.934;2023-04-24T04:37:06;8.40;99.90
15834;DHT22;8017;50.812;4.934;2023-04-24T04:40:10;8.40;99.90
15834;DHT22;8017;50.812;4.934;2023-04-24T04:43:12;8.40;99.90
15834;DHT22;8017;50.812;4.934;2023-04-24T04:46:15;8.40;99.90
15834;DHT22;8017;50.812;4.934;2023-04-24T04:49:17;8.40;99.90
15834;DHT22;8017;50.812;4.934;2023-04-24T04:52:19;8.40;99.90
15834;DHT22;8017;50.812;4.934;2023-04-24T04:55:26;8.40;99.90
15834;DHT22;8017;50.812;4.934;2023-04-24T04:58:28;8.40;99.90
15834;DHT22;8017;50.812;4.934;2023-04-24T05:01:31;8.40;99.90
15834;DHT22;8017;50.812;4.934;2023-04-24T05:04:33;8.50;99.90
15834;DHT22;8017;50.812;4.934;2023-04-24T05:07:35;8.50;99.90
15834;DHT22;8017;50.812;4.934;2023-04-24T05:10:38;8.50;99.90
15834;DHT22;8017;50.812;4.934;2023-04-24T05:13:40;8.60;99.90
15834;DHT22;8017;50.812;4.934;2023-04-24T05:16:42;8.50;99.90
15834;DHT22;8017;50.812;4.934;2023-04-24T05:19:44;8.50;99.90
15834;DHT22;8017;50.812;4.934;2023-04-24T05:22:46;8.60;99.90
15834;DHT22;8017;50.812;4.934;2023-04-24T05:25:50;8.60;99.90
15834;DHT22;8017;50.812;4.934;2023-04-24T05:28:52;8.50;99.90
15834;DHT22;8017;50.812;4.934;2023-04-24T05:31:54;8.50;99.90
15834;DHT22;8017;50.812;4.934;2023-04-24T05:34:55;8.60;99.90
15834;DHT22;8017;50.812;4.934;2023-04-24T05:37:57;8.50;99.90
15834;DHT22;8017;50.812;4.934;2023-04-24T05:41:01;8.50;99.90
15834;DHT22;8017;50.812;4.934;2023-04-24T05:44:03;8.40;99.90
15834;DHT22;8017;50.812;4.934;2023-04-24T05:47:04;8.40;99.90
15834;DHT22;8017;50.812;4.934;2023-04-24T05:50:07;8.40;99.90
15834;DHT22;8017;50.812;4.934;2023-04-24T05:53:09;8.40;99.90
15834;DHT22;8017;50.812;4.934;2023-04-24T05:56:13;8.40;99.90
15834;DHT22;8017;50.812;4.934;2023-04-24T05:59:15;8.30;99.90
15834;DHT22;8017;50.812;4.934;2023-04-24T06:02:17;8.30;99.90
15834;DHT22;8017;50.812;4.934;2023-04-24T06:05:19;8.30;99.90
15834;DHT22;8017;50.812;4.934;2023-04-24T06:08:21;8.40;99.90
15834;DHT22;8017;50.812;4.934;2023-04-24T06:11:24;8.30;99.90
15834;DHT22;8017;50.812;4.934;2023-04-24T06:14:26;8.40;99.90
15834;DHT22;8017;50.812;4.934;2023-04-24T06:17:28;8.30;99.90
15834;DHT22;8017;50.812;4.934;2023-04-24T06:20:30;8.40;99.90
15834;DHT22;8017;50.812;4.934;2023-04-24T06:23:32;8.40;99.90
15834;DHT22;8017;50.812;4.934;2023-04-24T06:26:35;8.40;99.90
15834;DHT22;8017;50.812;4.934;2023-04-24T06:29:37;8.40;99.90
15834;DHT22;8017;50.812;4.934;2023-04-24T06:32:39;8.40;99.90
15834;DHT22;8017;50.812;4.934;2023-04-24T06:35:41;8.30;99.90
15834;DHT22;8017;50.812;4.934;2023-04-24T06:38:43;8.40;99.90
15834;DHT22;8017;50.812;4.934;2023-04-24T06:41:47;8.30;99.90
15834;DHT22;8017;50.812;4.934;2023-04-24T06:44:48;8.30;99.90
15834;DHT22;8017;50.812;4.934;2023-04-24T06:47:50;8.40;99.90
15834;DHT22;8017;50.812;4.934;2023-04-24T06:50:52;8.30;99.90
15834;DHT22;8017;50.812;4.934;2023-04-24T06:53:54;8.30;99.90
15834;DHT22;8017;50.812;4.934;2023-04-24T06:56:59;8.30;99.90
15834;DHT22;8017;50.812;4.934;2023-04-24T07:00:01;8.30;99.90
15834;DHT22;8017;50.812;4.934;2023-04-24T07:03:04;8.30;99.90
15834;DHT22;8017;50.812;4.934;2023-04-24T07:06:06;8.30;99.90
15834;DHT22;8017;50.812;4.934;2023-04-24T07:09:08;8.30;99.90
15834;DHT22;8017;50.812;4.934;2023-04-24T07:12:12;8.30;99.90
15834;DHT22;8017;50.812;4.934;2023-04-24T07:15:14;8.40;99.90
15834;DHT22;8017;50.812;4.934;2023-04-24T07:18:17;8.40;99.90
15834;DHT22;8017;50.812;4.934;2023-04-24T07:21:18;8.40;99.90
15834;DHT22;8017;50.812;4.934;2023-04-24T07:24:20;8.50;99.90
15834;DHT22;8017;50.812;4.934;2023-04-24T07:27:24;8.60;99.90
15834;DHT22;8017;50.812;4.934;2023-04-24T07:30:26;8.60;99.90
15834;DHT22;8017;50.812;4.934;2023-04-24T07:33:29;8.70;99.90
15834;DHT22;8017;50.812;4.934;2023-04-24T07:36:31;8.80;99.90
15834;DHT22;8017;50.812;4.934;2023-04-24T07:39:33;9.00;99.90
15834;DHT22;8017;50.812;4.934;2023-04-24T07:42:37;9.00;99.90
15834;DHT22;8017;50.812;4.934;2023-04-24T07:45:39;9.10;99.90
15834;DHT22;8017;50.812;4.934;2023-04-24T07:48:41;9.20;99.90
15834;DHT22;8017;50.812;4.934;2023-04-24T07:51:43;9.20;99.90
15834;DHT22;8017;50.812;4.934;2023-04-24T07:54:45;9.10;99.90
15834;DHT22;8017;50.812;4.934;2023-04-24T07:57:48;8.90;99.90
15834;DHT22;8017;50.812;4.934;2023-04-24T08:00:50;8.90;99.90
15834;DHT22;8017;50.812;4.934;2023-04-24T08:03:52;8.90;99.90
15834;DHT22;8017;50.812;4.934;2023-04-24T08:06:54;8.90;99.90
15834;DHT22;8017;50.812;4.934;2023-04-24T08:09:56;8.90;99.90
15834;DHT22;8017;50.812;4.934;2023-04-24T08:13:01;8.90;99.90
15834;DHT22;8017;50.812;4.934;2023-04-24T08:16:03;9.00;99.90
15834;DHT22;8017;50.812;4.934;2023-04-24T08:19:05;9.10;99.90
15834;DHT22;8017;50.812;4.934;2023-04-24T08:22:07;9.20;99.90
15834;DHT22;8017;50.812;4.934;2023-04-24T08:25:10;9.30;99.90
15834;DHT22;8017;50.812;4.934;2023-04-24T08:28:13;9.30;99.90
15834;DHT22;8017;50.812;4.934;2023-04-24T08:31:20;9.70;99.90
15834;DHT22;8017;50.812;4.934;2023-04-24T08:34:23;10.30;99.90
15834;DHT22;8017;50.812;4.934;2023-04-24T08:37:25;10.90;99.90
15834;DHT22;8017;50.812;4.934;2023-04-24T08:40:28;11.10;99.90
15834;DHT22;8017;50.812;4.934;2023-04-24T08:43:33;11.30;99.90
15834;DHT22;8017;50.812;4.934;2023-04-24T08:46:37;11.30;99.90
15834;DHT22;8017;50.812;4.934;2023-04-24T08:49:39;11.40;99.90
15834;DHT22;8017;50.812;4.934;2023-04-24T08:52:42;11.20;99.90
15834;DHT22;8017;50.812;4.934;2023-04-24T08:55:44;10.90;99.90
15834;DHT22;8017;50.812;4.934;2023-04-24T08:58:50;10.50;99.90
15834;DHT22;8017;50.812;4.934;2023-04-24T09:01:52;10.30;99.90
15834;DHT22;8017;50.812;4.934;2023-04-24T09:04:55;10.30;99.90
15834;DHT22;8017;50.812;4.934;2023-04-24T09:07:59;10.40;99.90
15834;DHT22;8017;50.812;4.934;2023-04-24T09:11:01;10.50;99.90
15834;DHT22;8017;50.812;4.934;2023-04-24T09:14:05;10.70;99.90
15834;DHT22;8017;50.812;4.934;2023-04-24T09:17:08;11.00;99.90
15834;DHT22;8017;50.812;4.934;2023-04-24T09:20:10;11.30;99.90
15834;DHT22;8017;50.812;4.934;2023-04-24T09:23:17;11.70;99.90
15834;DHT22;8017;50.812;4.934;2023-04-24T09:26:21;11.80;99.90
15834;DHT22;8017;50.812;4.934;2023-04-24T09:29:25;11.60;99.90
15834;DHT22;8017;50.812;4.934;2023-04-24T09:32:27;11.30;99.90
15834;DHT22;8017;50.812;4.934;2023-04-24T09:35:32;11.10;99.90
15834;DHT22;8017;50.812;4.934;2023-04-24T09:38:35;11.30;99.90
15834;DHT22;8017;50.812;4.934;2023-04-24T09:41:44;11.70;99.90
15834;DHT22;8017;50.812;4.934;2023-04-24T09:44:49;12.30;99.90
15834;DHT22;8017;50.812;4.934;2023-04-24T09:47:52;12.50;99.90
15834;DHT22;8017;50.812;4.934;2023-04-24T09:50:55;12.10;99.90
15834;DHT22;8017;50.812;4.934;2023-04-24T09:53:57;11.80;99.90
15834;DHT22;8017;50.812;4.934;2023-04-24T09:56:59;11.80;99.90
15834;DHT22;8017;50.812;4.934;2023-04-24T10:00:03;12.10;99.90
15834;DHT22;8017;50.812;4.934;2023-04-24T10:03:05;12.60;99.90
15834;DHT22;8017;50.812;4.934;2023-04-24T10:06:12;12.50;99.90
15834;DHT22;8017;50.812;4.934;2023-04-24T10:09:14;12.20;99.90
15834;DHT22;8017;50.812;4.934;2023-04-24T10:12:16;12.00;99.90
15834;DHT22;8017;50.812;4.934;2023-04-24T10:15:20;12.00;99.90
15834;DHT22;8017;50.812;4.934;2023-04-24T10:18:23;12.00;99.90
15834;DHT22;8017;50.812;4.934;2023-04-24T10:21:26;12.20;99.90
15834;DHT22;8017;50.812;4.934;2023-04-24T10:24:28;11.90;99.90
15834;DHT22;8017;50.812;4.934;2023-04-24T10:27:32;11.90;99.90
15834;DHT22;8017;50.812;4.934;2023-04-24T10:30:35;12.20;99.90
15834;DHT22;8017;50.812;4.934;2023-04-24T10:33:38;12.50;99.90
15834;DHT22;8017;50.812;4.934;2023-04-24T10:36:46;12.50;99.90
15834;DHT22;8017;50.812;4.934;2023-04-24T10:39:49;12.60;99.90
15834;DHT22;8017;50.812;4.934;2023-04-24T10:42:52;12.60;99.90
15834;DHT22;8017;50.812;4.934;2023-04-24T10:46:02;12.90;99.90
15834;DHT22;8017;50.812;4.934;2023-04-24T10:49:05;13.20;99.90
15834;DHT22;8017;50.812;4.934;2023-04-24T10:52:09;13.60;99.90
15834;DHT22;8017;50.812;4.934;2023-04-24T10:55:13;13.60;99.90
15834;DHT22;8017;50.812;4.934;2023-04-24T10:58:16;13.40;99.90
15834;DHT22;8017;50.812;4.934;2023-04-24T11:01:26;13.20;99.90
15834;DHT22;8017;50.812;4.934;2023-04-24T11:04:32;13.10;99.90
15834;DHT22;8017;50.812;4.934;2023-04-24T11:11:12;13.00;99.90
15834;DHT22;8017;50.812;4.934;2023-04-24T11:14:15;12.90;99.90
15834;DHT22;8017;50.812;4.934;2023-04-24T11:17:29;12.80;99.90
15834;DHT22;8017;50.812;4.934;2023-04-24T11:20:31;12.90;99.90
15834;DHT22;8017;50.812;4.934;2023-04-24T11:23:36;13.20;99.90
15834;DHT22;8017;50.812;4.934;2023-04-24T11:26:38;13.50;99.90
15834;DHT22;8017;50.812;4.934;2023-04-24T11:29:43;13.30;99.90
15834;DHT22;8017;50.812;4.934;2023-04-24T11:32:50;13.40;99.90
15834;DHT22;8017;50.812;4.934;2023-04-24T11:35:52;13.60;99.90
15834;DHT22;8017;50.812;4.934;2023-04-24T11:38:54;13.70;99.90
15834;DHT22;8017;50.812;4.934;2023-04-24T11:42:02;13.60;99.90
15834;DHT22;8017;50.812;4.934;2023-04-24T11:45:08;13.40;99.90
15834;DHT22;8017;50.812;4.934;2023-04-24T11:48:12;13.60;99.90
15834;DHT22;8017;50.812;4.934;2023-04-24T11:51:14;13.30;99.90
15834;DHT22;8017;50.812;4.934;2023-04-24T11:54:16;13.40;99.90
15834;DHT22;8017;50.812;4.934;2023-04-24T11:57:19;13.60;99.90
15834;DHT22;8017;50.812;4.934;2023-04-24T12:00:23;13.80;99.90
15834;DHT22;8017;50.812;4.934;2023-04-24T12:03:27;13.70;99.90
15834;DHT22;8017;50.812;4.934;2023-04-24T12:06:28;13.60;99.90
15834;DHT22;8017;50.812;4.934;2023-04-24T12:09:41;13.90;99.90
15834;DHT22;8017;50.812;4.934;2023-04-24T12:12:45;14.10;99.90
15834;DHT22;8017;50.812;4.934;2023-04-24T12:15:47;14.10;99.90
15834;DHT22;8017;50.812;4.934;2023-04-24T12:18:53;14.10;99.90
15834;DHT22;8017;50.812;4.934;2023-04-24T12:22:01;14.40;99.90
15834;DHT22;8017;50.812;4.934;2023-04-24T12:25:05;14.20;99.90
15834;DHT22;8017;50.812;4.934;2023-04-24T12:28:11;14.20;99.90
15834;DHT22;8017;50.812;4.934;2023-04-24T12:31:13;14.10;99.90
15834;DHT22;8017;50.812;4.934;2023-04-24T12:34:20;14.40;99.90
15834;DHT22;8017;50.812;4.934;2023-04-24T12:37:23;14.90;99.90
15834;DHT22;8017;50.812;4.934;2023-04-24T12:40:26;15.00;99.90
15834;DHT22;8017;50.812;4.934;2023-04-24T12:43:29;14.70;99.90
15834;DHT22;8017;50.812;4.934;2023-04-24T12:46:31;14.70;99.90
15834;DHT22;8017;50.812;4.934;2023-04-24T12:49:34;14.40;99.90
15834;DHT22;8017;50.812;4.934;2023-04-24T12:52:36;14.30;99.90
15834;DHT22;8017;50.812;4.934;2023-04-24T12:55:39;14.10;99.90
15834;DHT22;8017;50.812;4.934;2023-04-24T12:58:41;14.20;99.90
15834;DHT22;8017;50.812;4.934;2023-04-24T13:01:43;14.30;99.90
15834;DHT22;8017;50.812;4.934;2023-04-24T13:04:47;14.30;99.90
15834;DHT22;8017;50.812;4.934;2023-04-24T13:07:48;14.40;99.90
15834;DHT22;8017;50.812;4.934;2023-04-24T13:10:50;14.60;99.90
15834;DHT22;8017;50.812;4.934;2023-04-24T13:13:54;14.40;99.90
15834;DHT22;8017;50.812;4.934;2023-04-24T13:16:56;14.40;99.90
15834;DHT22;8017;50.812;4.934;2023-04-24T13:20:00;13.80;99.90
15834;DHT22;8017;50.812;4.934;2023-04-24T13:23:01;13.80;99.90
15834;DHT22;8017;50.812;4.934;2023-04-24T13:26:04;13.70;99.90
15834;DHT22;8017;50.812;4.934;2023-04-24T13:29:05;13.50;99.90
15834;DHT22;8017;50.812;4.934;2023-04-24T13:32:08;13.20;99.90
15834;DHT22;8017;50.812;4.934;2023-04-24T13:35:12;13.30;99.90
15834;DHT22;8017;50.812;4.934;2023-04-24T13:38:13;13.60;99.90
15834;DHT22;8017;50.812;4.934;2023-04-24T13:41:15;13.60;99.90
15834;DHT22;8017;50.812;4.934;2023-04-24T13:44:19;13.80;99.90
15834;DHT22;8017;50.812;4.934;2023-04-24T13:47:21;13.80;99.90
15834;DHT22;8017;50.812;4.934;2023-04-24T13:50:24;14.10;99.90
15834;DHT22;8017;50.812;4.934;2023-04-24T13:53:26;14.20;99.90
15834;DHT22;8017;50.812;4.934;2023-04-24T13:56:28;14.40;99.90
15834;DHT22;8017;50.812;4.934;2023-04-24T13:59:30;14.60;99.90
15834;DHT22;8017;50.812;4.934;2023-04-24T14:02:32;14.80;99.90
15834;DHT22;8017;50.812;4.934;2023-04-24T14:05:35;15.00;99.90
15834;DHT22;8017;50.812;4.934;2023-04-24T14:08:37;15.00;99.90
15834;DHT22;8017;50.812;4.934;2023-04-24T14:11:39;15.00;99.90
15834;DHT22;8017;50.812;4.934;2023-04-24T14:14:41;15.10;99.90
15834;DHT22;8017;50.812;4.934;2023-04-24T14:17:43;15.00;99.90
15834;DHT22;8017;50.812;4.934;2023-04-24T14:20:47;14.70;99.90
15834;DHT22;8017;50.812;4.934;2023-04-24T14:23:49;14.80;99.90
15834;DHT22;8017;50.812;4.934;2023-04-24T14:26:51;14.90;99.90
15834;DHT22;8017;50.812;4.934;2023-04-24T14:29:53;15.10;99.90
15834;DHT22;8017;50.812;4.934;2023-04-24T14:32:55;15.20;99.90
15834;DHT22;8017;50.812;4.934;2023-04-24T14:35:58;14.70;99.90
15834;DHT22;8017;50.812;4.934;2023-04-24T14:39:00;14.70;99.90
15834;DHT22;8017;50.812;4.934;2023-04-24T14:42:06;14.50;99.90
15834;DHT22;8017;50.812;4.934;2023-04-24T14:45:09;14.30;99.90
15834;DHT22;8017;50.812;4.934;2023-04-24T14:48:11;14.30;99.90
15834;DHT22;8017;50.812;4.934;2023-04-24T14:51:14;14.20;99.90
15834;DHT22;8017;50.812;4.934;2023-04-24T14:54:16;14.10;99.90
15834;DHT22;8017;50.812;4.934;2023-04-24T14:57:18;13.80;99.90
15834;DHT22;8017;50.812;4.934;2023-04-24T15:00:20;13.80;99.90
15834;DHT22;8017;50.812;4.934;2023-04-24T15:03:23;13.90;99.90
15834;DHT22;8017;50.812;4.934;2023-04-24T15:06:30;14.10;99.90
15834;DHT22;8017;50.812;4.934;2023-04-24T15:09:32;14.20;99.90
15834;DHT22;8017;50.812;4.934;2023-04-24T15:12:34;14.10;99.90
15834;DHT22;8017;50.812;4.934;2023-04-24T15:15:36;14.00;99.90
15834;DHT22;8017;50.812;4.934;2023-04-24T15:18:38;13.90;99.90
15834;DHT22;8017;50.812;4.934;2023-04-24T15:21:42;13.90;99.90
15834;DHT22;8017;50.812;4.934;2023-04-24T15:24:45;13.50;99.90
15834;DHT22;8017;50.812;4.934;2023-04-24T15:27:47;13.40;99.90
15834;DHT22;8017;50.812;4.934;2023-04-24T15:30:49;13.10;99.90
15834;DHT22;8017;50.812;4.934;2023-04-24T15:33:51;13.10;99.90
15834;DHT22;8017;50.812;4.934;2023-04-24T15:36:54;13.10;99.90
15834;DHT22;8017;50.812;4.934;2023-04-24T15:39:56;13.10;99.90
15834;DHT22;8017;50.812;4.934;2023-04-24T15:43:00;13.00;99.90
15834;DHT22;8017;50.812;4.934;2023-04-24T15:46:02;13.10;99.90
15834;DHT22;8017;50.812;4.934;2023-04-24T15:49:04;13.40;99.90
15834;DHT22;8017;50.812;4.934;2023-04-24T15:52:08;13.40;99.90
15834;DHT22;8017;50.812;4.934;2023-04-24T15:55:10;13.30;99.90
15834;DHT22;8017;50.812;4.934;2023-04-24T15:58:12;13.30;99.90
15834;DHT22;8017;50.812;4.934;2023-04-24T16:01:14;13.10;99.90
15834;DHT22;8017;50.812;4.934;2023-04-24T16:04:16;13.10;99.90
15834;DHT22;8017;50.812;4.934;2023-04-24T16:07:19;12.90;99.90
15834;DHT22;8017;50.812;4.934;2023-04-24T16:10:21;13.00;99.90
15834;DHT22;8017;50.812;4.934;2023-04-24T16:13:29;12.90;99.90
15834;DHT22;8017;50.812;4.934;2023-04-24T16:16:36;12.70;99.90
15834;DHT22;8017;50.812;4.934;2023-04-24T16:19:38;12.60;99.90
15834;DHT22;8017;50.812;4.934;2023-04-24T16:22:41;12.70;99.90
15834;DHT22;8017;50.812;4.934;2023-04-24T16:25:43;12.80;99.90
15834;DHT22;8017;50.812;4.934;2023-04-24T16:28:45;12.80;99.90
15834;DHT22;8017;50.812;4.934;2023-04-24T16:31:47;12.70;99.90
15834;DHT22;8017;50.812;4.934;2023-04-24T16:34:49;12.70;99.90
15834;DHT22;8017;50.812;4.934;2023-04-24T16:37:52;12.80;99.90
15834;DHT22;8017;50.812;4.934;2023-04-24T16:40:54;12.60;99.90
15834;DHT22;8017;50.812;4.934;2023-04-24T16:43:56;12.50;99.90
15834;DHT22;8017;50.812;4.934;2023-04-24T16:46:58;12.50;99.90
15834;DHT22;8017;50.812;4.934;2023-04-24T16:50:00;12.50;99.90
15834;DHT22;8017;50.812;4.934;2023-04-24T16:53:03;12.70;99.90
15834;DHT22;8017;50.812;4.934;2023-04-24T16:56:05;12.90;99.90
15834;DHT22;8017;50.812;4.934;2023-04-24T16:59:07;12.90;99.90
15834;DHT22;8017;50.812;4.934;2023-04-24T17:02:09;12.90;99.90
15834;DHT22;8017;50.812;4.934;2023-04-24T17:05:11;13.00;99.90
15834;DHT22;8017;50.812;4.934;2023-04-24T17:08:14;12.90;99.90
15834;DHT22;8017;50.812;4.934;2023-04-24T17:11:16;13.10;99.90
15834;DHT22;8017;50.812;4.934;2023-04-24T17:14:18;12.90;99.90
15834;DHT22;8017;50.812;4.934;2023-04-24T17:17:22;12.50;99.90
15834;DHT22;8017;50.812;4.934;2023-04-24T17:20:25;12.20;99.90
15834;DHT22;8017;50.812;4.934;2023-04-24T17:23:28;12.40;99.90
15834;DHT22;8017;50.812;4.934;2023-04-24T17:26:30;12.40;99.90
15834;DHT22;8017;50.812;4.934;2023-04-24T17:29:33;12.70;99.90
15834;DHT22;8017;50.812;4.934;2023-04-24T17:32:36;13.00;99.90
15834;DHT22;8017;50.812;4.934;2023-04-24T17:35:38;13.00;99.90
15834;DHT22;8017;50.812;4.934;2023-04-24T17:38:41;12.70;99.90
15834;DHT22;8017;50.812;4.934;2023-04-24T17:41:44;12.80;99.90
15834;DHT22;8017;50.812;4.934;2023-04-24T17:44:46;13.00;99.90
15834;DHT22;8017;50.812;4.934;2023-04-24T17:47:47;12.80;99.90
15834;DHT22;8017;50.812;4.934;2023-04-24T17:50:49;12.50;99.90
15834;DHT22;8017;50.812;4.934;2023-04-24T17:53:53;12.50;99.90
15834;DHT22;8017;50.812;4.934;2023-04-24T17:56:55;12.30;99.90
15834;DHT22;8017;50.812;4.934;2023-04-24T17:59:57;12.20;99.90
15834;DHT22;8017;50.812;4.934;2023-04-24T18:02:59;12.00;99.90
15834;DHT22;8017;50.812;4.934;2023-04-24T18:06:01;11.80;99.90
15834;DHT22;8017;50.812;4.934;2023-04-24T18:09:04;11.60;99.90
15834;DHT22;8017;50.812;4.934;2023-04-24T18:12:06;11.40;99.90
15834;DHT22;8017;50.812;4.934;2023-04-24T18:15:09;11.30;99.90
15834;DHT22;8017;50.812;4.934;2023-04-24T18:18:11;11.20;99.90
15834;DHT22;8017;50.812;4.934;2023-04-24T18:21:14;11.20;99.90
15834;DHT22;8017;50.812;4.934;2023-04-24T18:24:18;11.20;99.90
15834;DHT22;8017;50.812;4.934;2023-04-24T18:27:21;11.10;99.90
15834;DHT22;8017;50.812;4.934;2023-04-24T18:30:24;11.10;99.90
15834;DHT22;8017;50.812;4.934;2023-04-24T18:33:27;11.10;99.90
15834;DHT22;8017;50.812;4.934;2023-04-24T18:36:29;10.90;99.90
15834;DHT22;8017;50.812;4.934;2023-04-24T18:39:33;10.70;99.90
15834;DHT22;8017;50.812;4.934;2023-04-24T18:42:35;10.50;99.90
15834;DHT22;8017;50.812;4.934;2023-04-24T18:45:37;10.40;99.90
15834;DHT22;8017;50.812;4.934;2023-04-24T18:48:39;10.40;99.90
15834;DHT22;8017;50.812;4.934;2023-04-24T18:51:41;10.40;99.90
15834;DHT22;8017;50.812;4.934;2023-04-24T18:54:44;10.40;99.90
15834;DHT22;8017;50.812;4.934;2023-04-24T18:57:47;10.30;99.90
15834;DHT22;8017;50.812;4.934;2023-04-24T19:00:49;10.20;99.90
15834;DHT22;8017;50.812;4.934;2023-04-24T19:03:51;10.10;99.90
15834;DHT22;8017;50.812;4.934;2023-04-24T19:06:53;10.00;99.90
15834;DHT22;8017;50.812;4.934;2023-04-24T19:09:56;10.00;99.90
15834;DHT22;8017;50.812;4.934;2023-04-24T19:12:59;10.00;99.90
15834;DHT22;8017;50.812;4.934;2023-04-24T19:16:01;10.00;99.90
15834;DHT22;8017;50.812;4.934;2023-04-24T19:19:03;9.90;99.90
15834;DHT22;8017;50.812;4.934;2023-04-24T19:22:05;9.90;99.90
15834;DHT22;8017;50.812;4.934;2023-04-24T19:25:09;9.90;99.90
15834;DHT22;8017;50.812;4.934;2023-04-24T19:28:11;9.80;99.90
15834;DHT22;8017;50.812;4.934;2023-04-24T19:31:13;9.80;99.90
15834;DHT22;8017;50.812;4.934;2023-04-24T19:34:15;9.70;99.90
15834;DHT22;8017;50.812;4.934;2023-04-24T19:37:17;9.60;99.90
15834;DHT22;8017;50.812;4.934;2023-04-24T19:40:20;9.60;99.90
15834;DHT22;8017;50.812;4.934;2023-04-24T19:43:22;9.70;99.90